sensor_id;sensor_type;location;lat;lon;timestamp;P1;durP1;ratioP1;P2;durP2;ratioP2
33190;SDS011;19554;42.652;23.364;2023-08-06T00:01:23;5.03;;;3.13;;
33190;SDS011;19554;42.652;23.364;2023-08-06T00:03:50;5.05;;;3.72;;
33190;SDS011;19554;42.652;23.364;2023-08-06T00:06:15;9.02;;;4.20;;
33190;SDS011;19554;42.652;23.364;2023-08-06T00:08:41;8.43;;;3.95;;
33190;SDS011;19554;42.652;23.364;2023-08-06T00:11:06;8.25;;;4.22;;
33190;SDS011;19554;42.652;23.364;2023-08-06T00:13:32;5.47;;;3.80;;
33190;SDS011;19554;42.652;23.364;2023-08-06T00:16:08;6.70;;;3.10;;
33190;SDS011;19554;42.652;23.364;2023-08-06T00:18:34;4.60;;;2.85;;
33190;SDS011;19554;42.652;23.364;2023-08-06T00:21:00;3.78;;;2.55;;
33190;SDS011;19554;42.652;23.364;2023-08-06T00:23:25;4.47;;;2.85;;
33190;SDS011;19554;42.652;23.364;2023-08-06T00:25:50;4.00;;;3.25;;
33190;SDS011;19554;42.652;23.364;2023-08-06T00:28:16;4.43;;;3.35;;
33190;SDS011;19554;42.652;23.364;2023-08-06T00:30:41;4.63;;;3.10;;
33190;SDS011;19554;42.652;23.364;2023-08-06T00:33:06;3.83;;;2.92;;
33190;SDS011;19554;42.652;23.364;2023-08-06T00:35:32;4.90;;;3.42;;
33190;SDS011;19554;42.652;23.364;2023-08-06T00:37:57;5.32;;;2.80;;
33190;SDS011;19554;42.652;23.364;2023-08-06T00:40:23;4.15;;;3.35;;
33190;SDS011;19554;42.652;23.364;2023-08-06T00:42:48;6.82;;;3.30;;
33190;SDS011;19554;42.652;23.364;2023-08-06T00:45:13;4.47;;;2.97;;
33190;SDS011;19554;42.652;23.364;2023-08-06T00:47:39;5.45;;;3.00;;
33190;SDS011;19554;42.652;23.364;2023-08-06T00:50:06;6.53;;;3.47;;
33190;SDS011;19554;42.652;23.364;2023-08-06T00:52:33;3.40;;;3.10;;
33190;SDS011;19554;42.652;23.364;2023-08-06T00:54:58;6.50;;;3.75;;
33190;SDS011;19554;42.652;23.364;2023-08-06T00:57:24;5.30;;;3.78;;
33190;SDS011;19554;42.652;23.364;2023-08-06T00:59:51;6.88;;;3.70;;
33190;SDS011;19554;42.652;23.364;2023-08-06T01:02:17;4.45;;;3.53;;
33190;SDS011;19554;42.652;23.364;2023-08-06T01:04:42;5.15;;;3.72;;
33190;SDS011;19554;42.652;23.364;2023-08-06T01:07:29;4.47;;;3.85;;
33190;SDS011;19554;42.652;23.364;2023-08-06T01:15:43;6.57;;;4.07;;
33190;SDS011;19554;42.652;23.364;2023-08-06T01:18:12;4.38;;;3.13;;
33190;SDS011;19554;42.652;23.364;2023-08-06T01:20:38;5.22;;;3.67;;
33190;SDS011;19554;42.652;23.364;2023-08-06T01:23:03;4.50;;;3.60;;
33190;SDS011;19554;42.652;23.364;2023-08-06T01:31:30;4.47;;;3.40;;
33190;SDS011;19554;42.652;23.364;2023-08-06T01:33:58;4.00;;;3.60;;
33190;SDS011;19554;42.652;23.364;2023-08-06T01:36:24;6.15;;;4.22;;
33190;SDS011;19554;42.652;23.364;2023-08-06T01:38:52;4.60;;;3.72;;
33190;SDS011;19554;42.652;23.364;2023-08-06T01:41:18;4.75;;;3.65;;
33190;SDS011;19554;42.652;23.364;2023-08-06T01:43:44;6.35;;;4.30;;
33190;SDS011;19554;42.652;23.364;2023-08-06T01:46:09;6.43;;;3.53;;
33190;SDS011;19554;42.652;23.364;2023-08-06T01:48:35;6.15;;;3.80;;
33190;SDS011;19554;42.652;23.364;2023-08-06T01:51:01;6.53;;;4.25;;
33190;SDS011;19554;42.652;23.364;2023-08-06T01:53:28;5.80;;;4.03;;
33190;SDS011;19554;42.652;23.364;2023-08-06T01:55:54;6.57;;;3.55;;
33190;SDS011;19554;42.652;23.364;2023-08-06T01:58:19;5.95;;;4.10;;
33190;SDS011;19554;42.652;23.364;2023-08-06T02:00:44;5.05;;;3.83;;
33190;SDS011;19554;42.652;23.364;2023-08-06T02:03:10;4.97;;;3.90;;
33190;SDS011;19554;42.652;23.364;2023-08-06T02:05:35;6.60;;;4.13;;
33190;SDS011;19554;42.652;23.364;2023-08-06T02:08:00;7.43;;;4.00;;
33190;SDS011;19554;42.652;23.364;2023-08-06T02:10:26;9.70;;;4.03;;
33190;SDS011;19554;42.652;23.364;2023-08-06T02:12:51;5.38;;;4.03;;
33190;SDS011;19554;42.652;23.364;2023-08-06T02:15:16;6.13;;;4.05;;
33190;SDS011;19554;42.652;23.364;2023-08-06T02:17:42;5.85;;;3.80;;
33190;SDS011;19554;42.652;23.364;2023-08-06T02:20:07;7.60;;;4.50;;
33190;SDS011;19554;42.652;23.364;2023-08-06T02:22:33;8.60;;;4.57;;
33190;SDS011;19554;42.652;23.364;2023-08-06T02:24:58;8.10;;;4.95;;
33190;SDS011;19554;42.652;23.364;2023-08-06T02:27:24;8.15;;;4.90;;
33190;SDS011;19554;42.652;23.364;2023-08-06T02:29:50;5.95;;;3.78;;
33190;SDS011;19554;42.652;23.364;2023-08-06T02:32:15;11.88;;;4.15;;
33190;SDS011;19554;42.652;23.364;2023-08-06T02:34:40;5.90;;;4.05;;
33190;SDS011;19554;42.652;23.364;2023-08-06T02:37:06;5.05;;;4.05;;
33190;SDS011;19554;42.652;23.364;2023-08-06T02:39:31;4.53;;;3.70;;
33190;SDS011;19554;42.652;23.364;2023-08-06T02:41:58;4.20;;;3.72;;
33190;SDS011;19554;42.652;23.364;2023-08-06T02:44:26;4.10;;;3.70;;
33190;SDS011;19554;42.652;23.364;2023-08-06T02:46:52;4.00;;;3.33;;
33190;SDS011;19554;42.652;23.364;2023-08-06T02:49:17;4.50;;;3.63;;
33190;SDS011;19554;42.652;23.364;2023-08-06T02:51:44;4.07;;;3.67;;
33190;SDS011;19554;42.652;23.364;2023-08-06T02:54:10;5.47;;;4.15;;
33190;SDS011;19554;42.652;23.364;2023-08-06T02:56:35;3.83;;;3.28;;
33190;SDS011;19554;42.652;23.364;2023-08-06T02:59:01;5.03;;;3.72;;
33190;SDS011;19554;42.652;23.364;2023-08-06T03:01:26;4.93;;;3.85;;
33190;SDS011;19554;42.652;23.364;2023-08-06T03:03:53;4.38;;;3.30;;
33190;SDS011;19554;42.652;23.364;2023-08-06T03:06:19;4.75;;;3.58;;
33190;SDS011;19554;42.652;23.364;2023-08-06T03:08:44;5.47;;;3.77;;
33190;SDS011;19554;42.652;23.364;2023-08-06T03:11:09;4.70;;;3.50;;
33190;SDS011;19554;42.652;23.364;2023-08-06T03:13:35;4.85;;;3.47;;
33190;SDS011;19554;42.652;23.364;2023-08-06T03:16:00;6.60;;;3.92;;
33190;SDS011;19554;42.652;23.364;2023-08-06T03:18:26;5.55;;;3.70;;
33190;SDS011;19554;42.652;23.364;2023-08-06T03:20:51;5.80;;;3.53;;
33190;SDS011;19554;42.652;23.364;2023-08-06T03:23:17;7.15;;;3.70;;
33190;SDS011;19554;42.652;23.364;2023-08-06T03:25:42;4.03;;;3.58;;
33190;SDS011;19554;42.652;23.364;2023-08-06T03:28:08;12.05;;;4.13;;
33190;SDS011;19554;42.652;23.364;2023-08-06T03:30:34;5.88;;;3.63;;
33190;SDS011;19554;42.652;23.364;2023-08-06T03:32:59;4.45;;;3.58;;
33190;SDS011;19554;42.652;23.364;2023-08-06T03:35:25;4.55;;;3.60;;
33190;SDS011;19554;42.652;23.364;2023-08-06T03:37:50;4.35;;;3.55;;
33190;SDS011;19554;42.652;23.364;2023-08-06T03:40:15;7.07;;;3.83;;
33190;SDS011;19554;42.652;23.364;2023-08-06T03:42:41;5.28;;;4.25;;
33190;SDS011;19554;42.652;23.364;2023-08-06T03:45:07;4.80;;;3.78;;
33190;SDS011;19554;42.652;23.364;2023-08-06T03:47:32;4.72;;;3.70;;
33190;SDS011;19554;42.652;23.364;2023-08-06T03:49:58;6.28;;;4.13;;
33190;SDS011;19554;42.652;23.364;2023-08-06T03:52:23;5.00;;;3.72;;
33190;SDS011;19554;42.652;23.364;2023-08-06T03:54:49;4.18;;;3.33;;
33190;SDS011;19554;42.652;23.364;2023-08-06T03:57:14;4.68;;;4.18;;
33190;SDS011;19554;42.652;23.364;2023-08-06T03:59:39;5.90;;;4.18;;
33190;SDS011;19554;42.652;23.364;2023-08-06T04:02:05;5.28;;;3.60;;
33190;SDS011;19554;42.652;23.364;2023-08-06T04:04:30;6.60;;;3.88;;
33190;SDS011;19554;42.652;23.364;2023-08-06T04:06:55;4.28;;;3.70;;
33190;SDS011;19554;42.652;23.364;2023-08-06T04:09:21;4.93;;;3.33;;
33190;SDS011;19554;42.652;23.364;2023-08-06T04:11:46;6.03;;;3.30;;
33190;SDS011;19554;42.652;23.364;2023-08-06T04:14:12;4.60;;;3.78;;
33190;SDS011;19554;42.652;23.364;2023-08-06T04:16:37;5.65;;;3.85;;
33190;SDS011;19554;42.652;23.364;2023-08-06T04:19:02;5.35;;;4.10;;
33190;SDS011;19554;42.652;23.364;2023-08-06T04:21:28;5.97;;;3.33;;
33190;SDS011;19554;42.652;23.364;2023-08-06T04:23:53;5.47;;;3.90;;
33190;SDS011;19554;42.652;23.364;2023-08-06T04:26:18;7.28;;;3.65;;
33190;SDS011;19554;42.652;23.364;2023-08-06T04:28:44;6.38;;;4.10;;
33190;SDS011;19554;42.652;23.364;2023-08-06T04:31:09;6.03;;;3.50;;
33190;SDS011;19554;42.652;23.364;2023-08-06T04:33:35;4.57;;;3.85;;
33190;SDS011;19554;42.652;23.364;2023-08-06T04:36:00;8.13;;;3.92;;
33190;SDS011;19554;42.652;23.364;2023-08-06T04:38:26;5.05;;;3.63;;
33190;SDS011;19554;42.652;23.364;2023-08-06T04:40:51;4.25;;;3.85;;
33190;SDS011;19554;42.652;23.364;2023-08-06T04:43:17;4.40;;;3.30;;
33190;SDS011;19554;42.652;23.364;2023-08-06T04:45:46;4.18;;;3.58;;
33190;SDS011;19554;42.652;23.364;2023-08-06T04:48:16;4.85;;;3.53;;
33190;SDS011;19554;42.652;23.364;2023-08-06T04:50:45;4.53;;;3.42;;
33190;SDS011;19554;42.652;23.364;2023-08-06T04:53:11;4.10;;;3.70;;
33190;SDS011;19554;42.652;23.364;2023-08-06T04:55:37;5.75;;;3.92;;
33190;SDS011;19554;42.652;23.364;2023-08-06T04:58:02;5.47;;;4.38;;
33190;SDS011;19554;42.652;23.364;2023-08-06T05:00:28;4.75;;;3.92;;
33190;SDS011;19554;42.652;23.364;2023-08-06T05:02:53;5.55;;;4.03;;
33190;SDS011;19554;42.652;23.364;2023-08-06T05:05:19;4.43;;;3.78;;
33190;SDS011;19554;42.652;23.364;2023-08-06T05:07:45;5.93;;;4.43;;
33190;SDS011;19554;42.652;23.364;2023-08-06T05:10:14;5.85;;;4.43;;
33190;SDS011;19554;42.652;23.364;2023-08-06T05:12:40;5.95;;;4.57;;
33190;SDS011;19554;42.652;23.364;2023-08-06T05:15:05;6.40;;;5.13;;
33190;SDS011;19554;42.652;23.364;2023-08-06T05:17:31;6.25;;;5.10;;
33190;SDS011;19554;42.652;23.364;2023-08-06T05:19:56;11.82;;;9.57;;
33190;SDS011;19554;42.652;23.364;2023-08-06T05:22:22;5.63;;;4.95;;
33190;SDS011;19554;42.652;23.364;2023-08-06T05:24:47;6.13;;;4.80;;
33190;SDS011;19554;42.652;23.364;2023-08-06T05:27:13;6.40;;;4.68;;
33190;SDS011;19554;42.652;23.364;2023-08-06T05:29:38;6.85;;;5.40;;
33190;SDS011;19554;42.652;23.364;2023-08-06T05:32:04;5.40;;;4.82;;
33190;SDS011;19554;42.652;23.364;2023-08-06T05:34:29;9.33;;;6.40;;
33190;SDS011;19554;42.652;23.364;2023-08-06T05:36:55;7.43;;;6.30;;
33190;SDS011;19554;42.652;23.364;2023-08-06T05:39:20;7.78;;;6.10;;
33190;SDS011;19554;42.652;23.364;2023-08-06T05:41:46;9.18;;;6.78;;
33190;SDS011;19554;42.652;23.364;2023-08-06T05:44:11;10.05;;;7.32;;
33190;SDS011;19554;42.652;23.364;2023-08-06T05:46:36;11.88;;;8.65;;
33190;SDS011;19554;42.652;23.364;2023-08-06T05:49:02;9.80;;;8.43;;
33190;SDS011;19554;42.652;23.364;2023-08-06T05:51:27;15.18;;;9.65;;
33190;SDS011;19554;42.652;23.364;2023-08-06T05:53:53;12.02;;;9.48;;
33190;SDS011;19554;42.652;23.364;2023-08-06T05:56:19;13.18;;;9.90;;
33190;SDS011;19554;42.652;23.364;2023-08-06T05:58:44;13.75;;;9.18;;
33190;SDS011;19554;42.652;23.364;2023-08-06T06:01:11;17.13;;;10.13;;
33190;SDS011;19554;42.652;23.364;2023-08-06T06:03:37;13.48;;;10.05;;
33190;SDS011;19554;42.652;23.364;2023-08-06T06:06:02;8.07;;;7.18;;
33190;SDS011;19554;42.652;23.364;2023-08-06T06:08:28;6.38;;;4.85;;
33190;SDS011;19554;42.652;23.364;2023-08-06T06:10:53;6.18;;;4.80;;
33190;SDS011;19554;42.652;23.364;2023-08-06T06:13:19;5.07;;;4.30;;
33190;SDS011;19554;42.652;23.364;2023-08-06T06:15:46;4.53;;;3.83;;
33190;SDS011;19554;42.652;23.364;2023-08-06T06:18:12;4.63;;;3.70;;
33190;SDS011;19554;42.652;23.364;2023-08-06T06:20:38;5.15;;;4.38;;
33190;SDS011;19554;42.652;23.364;2023-08-06T06:23:03;5.78;;;4.75;;
33190;SDS011;19554;42.652;23.364;2023-08-06T06:25:29;4.80;;;4.30;;
33190;SDS011;19554;42.652;23.364;2023-08-06T06:27:54;5.88;;;4.00;;
33190;SDS011;19554;42.652;23.364;2023-08-06T06:30:20;4.07;;;3.67;;
33190;SDS011;19554;42.652;23.364;2023-08-06T06:32:45;5.22;;;4.22;;
33190;SDS011;19554;42.652;23.364;2023-08-06T06:35:10;8.00;;;3.58;;
33190;SDS011;19554;42.652;23.364;2023-08-06T06:37:36;4.78;;;3.53;;
33190;SDS011;19554;42.652;23.364;2023-08-06T06:40:01;6.78;;;3.33;;
33190;SDS011;19554;42.652;23.364;2023-08-06T06:42:27;4.32;;;3.10;;
33190;SDS011;19554;42.652;23.364;2023-08-06T06:44:52;3.80;;;3.15;;
33190;SDS011;19554;42.652;23.364;2023-08-06T06:47:17;3.58;;;3.22;;
33190;SDS011;19554;42.652;23.364;2023-08-06T06:49:43;4.85;;;3.53;;
33190;SDS011;19554;42.652;23.364;2023-08-06T06:52:08;3.30;;;3.00;;
33190;SDS011;19554;42.652;23.364;2023-08-06T06:54:33;4.50;;;3.22;;
33190;SDS011;19554;42.652;23.364;2023-08-06T06:56:59;5.18;;;3.28;;
33190;SDS011;19554;42.652;23.364;2023-08-06T06:59:24;6.70;;;3.35;;
33190;SDS011;19554;42.652;23.364;2023-08-06T07:01:49;4.28;;;3.03;;
33190;SDS011;19554;42.652;23.364;2023-08-06T07:04:15;5.35;;;3.30;;
33190;SDS011;19554;42.652;23.364;2023-08-06T07:06:40;4.75;;;3.53;;
33190;SDS011;19554;42.652;23.364;2023-08-06T07:09:06;4.30;;;3.88;;
33190;SDS011;19554;42.652;23.364;2023-08-06T07:11:31;5.90;;;3.47;;
33190;SDS011;19554;42.652;23.364;2023-08-06T07:13:57;5.90;;;4.10;;
33190;SDS011;19554;42.652;23.364;2023-08-06T07:16:23;5.53;;;4.57;;
33190;SDS011;19554;42.652;23.364;2023-08-06T07:18:50;8.02;;;5.55;;
33190;SDS011;19554;42.652;23.364;2023-08-06T07:21:17;6.43;;;4.32;;
33190;SDS011;19554;42.652;23.364;2023-08-06T07:23:42;6.30;;;3.63;;
33190;SDS011;19554;42.652;23.364;2023-08-06T07:26:07;3.72;;;3.30;;
33190;SDS011;19554;42.652;23.364;2023-08-06T07:28:34;4.32;;;2.80;;
33190;SDS011;19554;42.652;23.364;2023-08-06T07:30:59;5.00;;;3.38;;
33190;SDS011;19554;42.652;23.364;2023-08-06T07:33:25;7.25;;;3.10;;
33190;SDS011;19554;42.652;23.364;2023-08-06T07:35:50;7.05;;;3.95;;
33190;SDS011;19554;42.652;23.364;2023-08-06T07:38:15;4.20;;;3.13;;
33190;SDS011;19554;42.652;23.364;2023-08-06T07:40:41;3.90;;;3.28;;
33190;SDS011;19554;42.652;23.364;2023-08-06T07:43:07;4.03;;;3.10;;
33190;SDS011;19554;42.652;23.364;2023-08-06T07:45:35;3.63;;;3.03;;
33190;SDS011;19554;42.652;23.364;2023-08-06T07:48:01;4.95;;;3.40;;
33190;SDS011;19554;42.652;23.364;2023-08-06T07:50:27;5.60;;;2.97;;
33190;SDS011;19554;42.652;23.364;2023-08-06T07:52:52;4.78;;;3.53;;
33190;SDS011;19554;42.652;23.364;2023-08-06T07:55:18;3.92;;;3.40;;
33190;SDS011;19554;42.652;23.364;2023-08-06T07:57:43;4.13;;;2.78;;
33190;SDS011;19554;42.652;23.364;2023-08-06T08:00:09;4.55;;;3.35;;
33190;SDS011;19554;42.652;23.364;2023-08-06T08:02:34;3.58;;;2.95;;
33190;SDS011;19554;42.652;23.364;2023-08-06T08:05:00;3.50;;;2.80;;
33190;SDS011;19554;42.652;23.364;2023-08-06T08:07:25;7.35;;;3.70;;
33190;SDS011;19554;42.652;23.364;2023-08-06T08:09:53;6.40;;;3.60;;
33190;SDS011;19554;42.652;23.364;2023-08-06T08:12:18;5.95;;;3.05;;
33190;SDS011;19554;42.652;23.364;2023-08-06T08:14:44;5.38;;;3.30;;
33190;SDS011;19554;42.652;23.364;2023-08-06T08:17:10;5.18;;;4.15;;
33190;SDS011;19554;42.652;23.364;2023-08-06T08:19:36;6.43;;;4.97;;
33190;SDS011;19554;42.652;23.364;2023-08-06T08:22:02;4.18;;;3.03;;
33190;SDS011;19554;42.652;23.364;2023-08-06T08:24:28;4.22;;;3.35;;
33190;SDS011;19554;42.652;23.364;2023-08-06T08:26:55;5.28;;;3.10;;
33190;SDS011;19554;42.652;23.364;2023-08-06T08:29:21;4.57;;;3.15;;
33190;SDS011;19554;42.652;23.364;2023-08-06T08:31:47;4.97;;;2.92;;
33190;SDS011;19554;42.652;23.364;2023-08-06T08:34:16;2.92;;;2.72;;
33190;SDS011;19554;42.652;23.364;2023-08-06T08:36:42;5.10;;;3.33;;
33190;SDS011;19554;42.652;23.364;2023-08-06T08:39:08;4.63;;;3.25;;
33190;SDS011;19554;42.652;23.364;2023-08-06T08:41:33;3.58;;;3.15;;
33190;SDS011;19554;42.652;23.364;2023-08-06T08:44:01;3.28;;;2.88;;
33190;SDS011;19554;42.652;23.364;2023-08-06T08:46:27;4.22;;;3.45;;
33190;SDS011;19554;42.652;23.364;2023-08-06T08:48:55;4.13;;;3.10;;
33190;SDS011;19554;42.652;23.364;2023-08-06T08:51:23;4.47;;;3.40;;
33190;SDS011;19554;42.652;23.364;2023-08-06T08:53:49;3.30;;;2.65;;
33190;SDS011;19554;42.652;23.364;2023-08-06T08:56:16;4.72;;;3.05;;
33190;SDS011;19554;42.652;23.364;2023-08-06T08:58:41;3.30;;;3.00;;
33190;SDS011;19554;42.652;23.364;2023-08-06T09:01:07;3.95;;;3.47;;
33190;SDS011;19554;42.652;23.364;2023-08-06T09:03:33;4.10;;;3.20;;
33190;SDS011;19554;42.652;23.364;2023-08-06T09:06:01;3.63;;;3.33;;
33190;SDS011;19554;42.652;23.364;2023-08-06T09:08:30;4.95;;;3.55;;
33190;SDS011;19554;42.652;23.364;2023-08-06T09:11:01;4.45;;;3.40;;
33190;SDS011;19554;42.652;23.364;2023-08-06T09:13:27;3.83;;;3.40;;
33190;SDS011;19554;42.652;23.364;2023-08-06T09:15:53;3.40;;;3.10;;
33190;SDS011;19554;42.652;23.364;2023-08-06T09:18:24;4.18;;;3.47;;
33190;SDS011;19554;42.652;23.364;2023-08-06T09:20:54;4.32;;;2.85;;
33190;SDS011;19554;42.652;23.364;2023-08-06T09:23:21;4.80;;;3.22;;
33190;SDS011;19554;42.652;23.364;2023-08-06T09:25:54;3.40;;;3.10;;
33190;SDS011;19554;42.652;23.364;2023-08-06T09:28:20;4.30;;;3.30;;
33190;SDS011;19554;42.652;23.364;2023-08-06T09:30:46;7.57;;;3.30;;
33190;SDS011;19554;42.652;23.364;2023-08-06T09:33:14;4.05;;;3.10;;
33190;SDS011;19554;42.652;23.364;2023-08-06T09:35:43;6.03;;;3.25;;
33190;SDS011;19554;42.652;23.364;2023-08-06T09:38:09;5.78;;;3.60;;
33190;SDS011;19554;42.652;23.364;2023-08-06T09:40:35;4.13;;;3.38;;
33190;SDS011;19554;42.652;23.364;2023-08-06T09:43:02;5.72;;;3.15;;
33190;SDS011;19554;42.652;23.364;2023-08-06T09:45:29;4.20;;;3.40;;
33190;SDS011;19554;42.652;23.364;2023-08-06T09:47:59;4.65;;;3.10;;
33190;SDS011;19554;42.652;23.364;2023-08-06T09:50:31;3.50;;;2.97;;
33190;SDS011;19554;42.652;23.364;2023-08-06T09:52:57;2.72;;;2.25;;
33190;SDS011;19554;42.652;23.364;2023-08-06T09:55:24;3.72;;;3.00;;
33190;SDS011;19554;42.652;23.364;2023-08-06T09:57:52;5.53;;;3.33;;
33190;SDS011;19554;42.652;23.364;2023-08-06T10:00:19;3.47;;;2.78;;
33190;SDS011;19554;42.652;23.364;2023-08-06T10:02:45;3.40;;;2.92;;
33190;SDS011;19554;42.652;23.364;2023-08-06T10:05:11;5.78;;;3.30;;
33190;SDS011;19554;42.652;23.364;2023-08-06T10:07:37;3.20;;;2.90;;
33190;SDS011;19554;42.652;23.364;2023-08-06T10:10:04;5.07;;;3.80;;
33190;SDS011;19554;42.652;23.364;2023-08-06T10:12:34;4.00;;;3.28;;
33190;SDS011;19554;42.652;23.364;2023-08-06T10:15:07;7.47;;;3.72;;
33190;SDS011;19554;42.652;23.364;2023-08-06T10:17:35;8.65;;;3.80;;
33190;SDS011;19554;42.652;23.364;2023-08-06T10:20:02;5.40;;;2.80;;
33190;SDS011;19554;42.652;23.364;2023-08-06T10:22:33;3.22;;;2.85;;
33190;SDS011;19554;42.652;23.364;2023-08-06T10:24:59;2.75;;;2.42;;
33190;SDS011;19554;42.652;23.364;2023-08-06T10:27:53;3.72;;;2.60;;
33190;SDS011;19554;42.652;23.364;2023-08-06T10:30:29;3.50;;;3.20;;
33190;SDS011;19554;42.652;23.364;2023-08-06T10:33:03;5.07;;;2.70;;
33190;SDS011;19554;42.652;23.364;2023-08-06T10:35:30;2.80;;;2.60;;
33190;SDS011;19554;42.652;23.364;2023-08-06T10:40:35;2.25;;;1.98;;
33190;SDS011;19554;42.652;23.364;2023-08-06T10:43:02;3.92;;;2.88;;
33190;SDS011;19554;42.652;23.364;2023-08-06T10:45:29;4.00;;;3.30;;
33190;SDS011;19554;42.652;23.364;2023-08-06T10:47:55;3.30;;;2.85;;
33190;SDS011;19554;42.652;23.364;2023-08-06T10:50:22;6.65;;;2.67;;
33190;SDS011;19554;42.652;23.364;2023-08-06T10:52:48;5.15;;;3.35;;
33190;SDS011;19554;42.652;23.364;2023-08-06T10:55:14;4.05;;;2.90;;
33190;SDS011;19554;42.652;23.364;2023-08-06T10:57:48;3.42;;;2.97;;
33190;SDS011;19554;42.652;23.364;2023-08-06T11:00:13;4.00;;;3.10;;
33190;SDS011;19554;42.652;23.364;2023-08-06T11:02:39;3.83;;;2.95;;
33190;SDS011;19554;42.652;23.364;2023-08-06T11:05:08;3.50;;;3.20;;
33190;SDS011;19554;42.652;23.364;2023-08-06T11:07:35;4.15;;;3.35;;
33190;SDS011;19554;42.652;23.364;2023-08-06T11:10:04;2.90;;;2.60;;
33190;SDS011;19554;42.652;23.364;2023-08-06T11:12:31;4.25;;;3.33;;
33190;SDS011;19554;42.652;23.364;2023-08-06T11:15:00;3.60;;;2.72;;
33190;SDS011;19554;42.652;23.364;2023-08-06T11:17:29;4.43;;;2.70;;
33190;SDS011;19554;42.652;23.364;2023-08-06T11:20:00;3.72;;;2.70;;
33190;SDS011;19554;42.652;23.364;2023-08-06T11:22:27;3.95;;;2.83;;
33190;SDS011;19554;42.652;23.364;2023-08-06T11:24:53;7.50;;;3.40;;
33190;SDS011;19554;42.652;23.364;2023-08-06T11:27:19;4.72;;;2.78;;
33190;SDS011;19554;42.652;23.364;2023-08-06T11:29:45;3.42;;;2.95;;
33190;SDS011;19554;42.652;23.364;2023-08-06T11:32:11;4.03;;;2.42;;
33190;SDS011;19554;42.652;23.364;2023-08-06T11:34:37;3.00;;;2.70;;
33190;SDS011;19554;42.652;23.364;2023-08-06T11:37:03;3.80;;;3.03;;
33190;SDS011;19554;42.652;23.364;2023-08-06T11:39:35;6.03;;;3.40;;
33190;SDS011;19554;42.652;23.364;2023-08-06T11:42:05;4.88;;;3.22;;
33190;SDS011;19554;42.652;23.364;2023-08-06T11:44:32;4.13;;;3.53;;
33190;SDS011;19554;42.652;23.364;2023-08-06T11:47:01;6.55;;;3.70;;
33190;SDS011;19554;42.652;23.364;2023-08-06T11:52:20;3.63;;;3.30;;
33190;SDS011;19554;42.652;23.364;2023-08-06T11:54:59;6.75;;;3.53;;
33190;SDS011;19554;42.652;23.364;2023-08-06T11:57:33;4.32;;;3.35;;
33190;SDS011;19554;42.652;23.364;2023-08-06T12:00:10;6.68;;;3.25;;
33190;SDS011;19554;42.652;23.364;2023-08-06T12:02:40;6.47;;;3.72;;
33190;SDS011;19554;42.652;23.364;2023-08-06T12:05:13;4.78;;;3.63;;
33190;SDS011;19554;42.652;23.364;2023-08-06T12:07:40;7.15;;;3.40;;
33190;SDS011;19554;42.652;23.364;2023-08-06T12:10:07;5.57;;;4.38;;
33190;SDS011;19554;42.652;23.364;2023-08-06T12:12:33;6.03;;;3.95;;
33190;SDS011;19554;42.652;23.364;2023-08-06T12:14:59;8.25;;;4.00;;
33190;SDS011;19554;42.652;23.364;2023-08-06T12:17:25;4.07;;;3.15;;
33190;SDS011;19554;42.652;23.364;2023-08-06T12:19:50;4.80;;;3.65;;
33190;SDS011;19554;42.652;23.364;2023-08-06T12:22:16;5.10;;;3.53;;
33190;SDS011;19554;42.652;23.364;2023-08-06T12:24:42;5.70;;;4.45;;
33190;SDS011;19554;42.652;23.364;2023-08-06T12:27:08;5.30;;;4.78;;
33190;SDS011;19554;42.652;23.364;2023-08-06T12:29:34;5.72;;;4.68;;
33190;SDS011;19554;42.652;23.364;2023-08-06T12:32:00;8.80;;;4.95;;
33190;SDS011;19554;42.652;23.364;2023-08-06T12:34:25;6.70;;;4.53;;
33190;SDS011;19554;42.652;23.364;2023-08-06T12:36:50;7.28;;;4.90;;
33190;SDS011;19554;42.652;23.364;2023-08-06T12:39:16;5.90;;;4.80;;
33190;SDS011;19554;42.652;23.364;2023-08-06T12:41:41;6.18;;;5.22;;
33190;SDS011;19554;42.652;23.364;2023-08-06T12:44:08;8.38;;;4.80;;
33190;SDS011;19554;42.652;23.364;2023-08-06T12:46:34;5.05;;;4.30;;
33190;SDS011;19554;42.652;23.364;2023-08-06T12:48:59;5.18;;;4.68;;
33190;SDS011;19554;42.652;23.364;2023-08-06T12:51:24;6.20;;;4.97;;
33190;SDS011;19554;42.652;23.364;2023-08-06T12:53:50;6.95;;;4.88;;
33190;SDS011;19554;42.652;23.364;2023-08-06T12:56:15;5.53;;;4.97;;
33190;SDS011;19554;42.652;23.364;2023-08-06T12:58:41;6.85;;;4.97;;
33190;SDS011;19554;42.652;23.364;2023-08-06T13:01:07;6.38;;;5.35;;
33190;SDS011;19554;42.652;23.364;2023-08-06T13:03:33;7.00;;;6.28;;
33190;SDS011;19554;42.652;23.364;2023-08-06T13:05:58;7.15;;;5.93;;
33190;SDS011;19554;42.652;23.364;2023-08-06T13:08:23;6.78;;;6.10;;
33190;SDS011;19554;42.652;23.364;2023-08-06T13:10:49;10.20;;;6.22;;
33190;SDS011;19554;42.652;23.364;2023-08-06T13:13:14;8.48;;;5.55;;
33190;SDS011;19554;42.652;23.364;2023-08-06T13:15:39;9.10;;;5.18;;
33190;SDS011;19554;42.652;23.364;2023-08-06T13:18:05;9.68;;;5.20;;
33190;SDS011;19554;42.652;23.364;2023-08-06T13:20:31;5.65;;;5.07;;
33190;SDS011;19554;42.652;23.364;2023-08-06T13:22:57;6.93;;;5.13;;
33190;SDS011;19554;42.652;23.364;2023-08-06T13:25:23;6.05;;;5.10;;
33190;SDS011;19554;42.652;23.364;2023-08-06T13:27:48;6.57;;;4.97;;
33190;SDS011;19554;42.652;23.364;2023-08-06T13:30:14;8.50;;;6.55;;
33190;SDS011;19554;42.652;23.364;2023-08-06T13:32:39;5.03;;;4.60;;
33190;SDS011;19554;42.652;23.364;2023-08-06T13:35:05;5.85;;;4.75;;
33190;SDS011;19554;42.652;23.364;2023-08-06T13:37:30;6.22;;;4.82;;
33190;SDS011;19554;42.652;23.364;2023-08-06T13:39:56;6.75;;;5.30;;
33190;SDS011;19554;42.652;23.364;2023-08-06T13:42:22;5.60;;;5.03;;
33190;SDS011;19554;42.652;23.364;2023-08-06T13:44:47;6.40;;;5.00;;
33190;SDS011;19554;42.652;23.364;2023-08-06T13:47:13;7.22;;;4.72;;
33190;SDS011;19554;42.652;23.364;2023-08-06T13:49:38;5.13;;;4.63;;
33190;SDS011;19554;42.652;23.364;2023-08-06T13:52:03;5.00;;;4.57;;
33190;SDS011;19554;42.652;23.364;2023-08-06T13:54:29;4.97;;;4.47;;
33190;SDS011;19554;42.652;23.364;2023-08-06T13:56:54;5.13;;;4.40;;
33190;SDS011;19554;42.652;23.364;2023-08-06T13:59:20;5.00;;;4.45;;
33190;SDS011;19554;42.652;23.364;2023-08-06T14:01:45;11.65;;;8.95;;
33190;SDS011;19554;42.652;23.364;2023-08-06T14:04:12;11.30;;;5.70;;
33190;SDS011;19554;42.652;23.364;2023-08-06T14:06:37;5.20;;;4.68;;
33190;SDS011;19554;42.652;23.364;2023-08-06T14:09:03;5.05;;;4.38;;
33190;SDS011;19554;42.652;23.364;2023-08-06T14:11:28;5.05;;;4.65;;
33190;SDS011;19554;42.652;23.364;2023-08-06T14:13:54;7.07;;;4.90;;
33190;SDS011;19554;42.652;23.364;2023-08-06T14:16:19;7.13;;;4.85;;
33190;SDS011;19554;42.652;23.364;2023-08-06T14:18:45;9.52;;;4.47;;
33190;SDS011;19554;42.652;23.364;2023-08-06T14:21:10;5.00;;;4.50;;
33190;SDS011;19554;42.652;23.364;2023-08-06T14:23:35;8.85;;;4.40;;
33190;SDS011;19554;42.652;23.364;2023-08-06T14:26:01;8.95;;;5.10;;
33190;SDS011;19554;42.652;23.364;2023-08-06T14:28:26;5.22;;;4.13;;
33190;SDS011;19554;42.652;23.364;2023-08-06T14:30:52;6.55;;;4.90;;
33190;SDS011;19554;42.652;23.364;2023-08-06T14:33:17;5.45;;;4.18;;
33190;SDS011;19554;42.652;23.364;2023-08-06T14:35:42;4.40;;;4.00;;
33190;SDS011;19554;42.652;23.364;2023-08-06T14:38:08;6.85;;;4.55;;
33190;SDS011;19554;42.652;23.364;2023-08-06T14:40:33;6.95;;;4.80;;
33190;SDS011;19554;42.652;23.364;2023-08-06T14:43:02;6.18;;;4.90;;
33190;SDS011;19554;42.652;23.364;2023-08-06T14:45:30;6.13;;;4.38;;